sensor_id;sensor_type;location;lat;lon;timestamp;pressure;altitude;pressure_sealevel;temperature;humidity
59073;BME280;44859;51.934;15.554;2023-08-01T00:00:29;98604.06;;;17.79;71.63
59073;BME280;44859;51.934;15.554;2023-08-01T00:03:26;98595.38;;;17.77;71.76
59073;BME280;44859;51.934;15.554;2023-08-01T00:09:18;98583.40;;;17.71;72.15
59073;BME280;44859;51.934;15.554;2023-08-01T00:19:35;98566.77;;;17.63;72.75
59073;BME280;44859;51.934;15.554;2023-08-01T00:22:35;98556.50;;;17.61;72.66
59073;BME280;44859;51.934;15.554;2023-08-01T00:26:39;98557.88;;;17.59;72.75
59073;BME280;44859;51.934;15.554;2023-08-01T00:29:33;98557.75;;;17.57;72.93
59073;BME280;44859;51.934;15.554;2023-08-01T00:32:04;98551.36;;;17.57;72.79
59073;BME280;44859;51.934;15.554;2023-08-01T00:35:23;98541.83;;;17.58;72.72
59073;BME280;44859;51.934;15.554;2023-08-01T00:49:08;98525.30;;;17.79;72.25
59073;BME280;44859;51.934;15.554;2023-08-01T00:52:26;98519.18;;;17.81;72.36
59073;BME280;44859;51.934;15.554;2023-08-01T00:55:14;98514.55;;;17.81;72.13
59073;BME280;44859;51.934;15.554;2023-08-01T00:58:35;98515.02;;;17.82;72.14
59073;BME280;44859;51.934;15.554;2023-08-01T01:01:47;98506.13;;;17.78;72.35
59073;BME280;44859;51.934;15.554;2023-08-01T01:08:25;98503.27;;;17.82;72.41
59073;BME280;44859;51.934;15.554;2023-08-01T01:11:32;98493.63;;;17.85;72.15
59073;BME280;44859;51.934;15.554;2023-08-01T01:14:44;98488.59;;;17.89;72.01
59073;BME280;44859;51.934;15.554;2023-08-01T01:17:46;98490.67;;;17.88;72.68
59073;BME280;44859;51.934;15.554;2023-08-01T01:21:25;98492.37;;;17.80;73.21
59073;BME280;44859;51.934;15.554;2023-08-01T01:24:15;98492.03;;;17.69;74.10
59073;BME280;44859;51.934;15.554;2023-08-01T01:27:39;98495.02;;;17.56;74.90
59073;BME280;44859;51.934;15.554;2023-08-01T01:37:38;98491.25;;;17.05;77.78
59073;BME280;44859;51.934;15.554;2023-08-01T01:40:30;98481.08;;;16.91;79.04
59073;BME280;44859;51.934;15.554;2023-08-01T01:46:43;98463.99;;;16.65;80.38
59073;BME280;44859;51.934;15.554;2023-08-01T01:49:33;98459.43;;;16.57;81.41
59073;BME280;44859;51.934;15.554;2023-08-01T01:52:50;98456.64;;;16.49;82.16
59073;BME280;44859;51.934;15.554;2023-08-01T01:55:52;98446.40;;;16.39;83.37
59073;BME280;44859;51.934;15.554;2023-08-01T01:58:50;98440.27;;;16.30;84.22
59073;BME280;44859;51.934;15.554;2023-08-01T02:01:26;98437.86;;;16.23;84.68
59073;BME280;44859;51.934;15.554;2023-08-01T02:04:19;98434.55;;;16.21;85.26
59073;BME280;44859;51.934;15.554;2023-08-01T02:10:17;98432.77;;;16.14;86.35
59073;BME280;44859;51.934;15.554;2023-08-01T02:12:55;98425.40;;;16.10;87.33
59073;BME280;44859;51.934;15.554;2023-08-01T02:16:04;98416.36;;;16.01;87.97
59073;BME280;44859;51.934;15.554;2023-08-01T02:19:40;98417.80;;;15.95;88.78
59073;BME280;44859;51.934;15.554;2023-08-01T02:22:48;98415.17;;;15.91;89.36
59073;BME280;44859;51.934;15.554;2023-08-01T02:25:24;98415.74;;;15.87;90.30
59073;BME280;44859;51.934;15.554;2023-08-01T02:34:21;98396.83;;;15.65;92.96
59073;BME280;44859;51.934;15.554;2023-08-01T02:41:45;98379.73;;;15.54;94.27
59073;BME280;44859;51.934;15.554;2023-08-01T02:44:32;98372.27;;;15.51;94.65
59073;BME280;44859;51.934;15.554;2023-08-01T02:47:54;98373.45;;;15.50;95.69
59073;BME280;44859;51.934;15.554;2023-08-01T02:50:59;98368.11;;;15.44;96.38
59073;BME280;44859;51.934;15.554;2023-08-01T02:54:28;98364.40;;;15.40;96.88
59073;BME280;44859;51.934;15.554;2023-08-01T03:01:51;98357.75;;;15.37;97.91
59073;BME280;44859;51.934;15.554;2023-08-01T03:04:48;98358.60;;;15.38;98.28
59073;BME280;44859;51.934;15.554;2023-08-01T03:08:14;98351.86;;;15.38;98.52
59073;BME280;44859;51.934;15.554;2023-08-01T03:22:36;98330.14;;;15.36;99.79
59073;BME280;44859;51.934;15.554;2023-08-01T03:34:05;98321.29;;;15.36;100.00
59073;BME280;44859;51.934;15.554;2023-08-01T03:37:19;98316.67;;;15.34;100.00
59073;BME280;44859;51.934;15.554;2023-08-01T03:44:42;98315.20;;;15.33;100.00
59073;BME280;44859;51.934;15.554;2023-08-01T03:47:26;98307.58;;;15.33;100.00
59073;BME280;44859;51.934;15.554;2023-08-01T03:53:43;98302.00;;;15.26;100.00
59073;BME280;44859;51.934;15.554;2023-08-01T03:56:31;98299.80;;;15.25;100.00
59073;BME280;44859;51.934;15.554;2023-08-01T04:00:15;98295.56;;;15.25;100.00
59073;BME280;44859;51.934;15.554;2023-08-01T04:04:08;98290.06;;;15.23;100.00
59073;BME280;44859;51.934;15.554;2023-08-01T04:06:38;98282.55;;;15.24;100.00
59073;BME280;44859;51.934;15.554;2023-08-01T04:12:53;98280.20;;;15.25;100.00
59073;BME280;44859;51.934;15.554;2023-08-01T04:15:23;98279.01;;;15.24;100.00
59073;BME280;44859;51.934;15.554;2023-08-01T04:18:17;98281.06;;;15.25;100.00
59073;BME280;44859;51.934;15.554;2023-08-01T04:24:01;98272.38;;;15.25;100.00
59073;BME280;44859;51.934;15.554;2023-08-01T04:26:49;98269.19;;;15.25;100.00
59073;BME280;44859;51.934;15.554;2023-08-01T04:29:38;98272.65;;;15.28;100.00
59073;BME280;44859;51.934;15.554;2023-08-01T04:32:44;98263.58;;;15.28;100.00
59073;BME280;44859;51.934;15.554;2023-08-01T04:35:44;98258.33;;;15.28;100.00
59073;BME280;44859;51.934;15.554;2023-08-01T04:39:13;98255.45;;;15.28;100.00
59073;BME280;44859;51.934;15.554;2023-08-01T04:45:39;98247.29;;;15.31;100.00
59073;BME280;44859;51.934;15.554;2023-08-01T04:53:10;98235.80;;;15.34;100.00
59073;BME280;44859;51.934;15.554;2023-08-01T04:56:39;98235.28;;;15.34;100.00
59073;BME280;44859;51.934;15.554;2023-08-01T05:00:04;98233.77;;;15.37;100.00
59073;BME280;44859;51.934;15.554;2023-08-01T05:06:26;98226.02;;;15.37;100.00
59073;BME280;44859;51.934;15.554;2023-08-01T05:10:04;98219.05;;;15.36;100.00
59073;BME280;44859;51.934;15.554;2023-08-01T05:13:08;98219.27;;;15.37;100.00
59073;BME280;44859;51.934;15.554;2023-08-01T05:16:30;98211.58;;;15.40;100.00
59073;BME280;44859;51.934;15.554;2023-08-01T05:19:49;98213.44;;;15.47;100.00
59073;BME280;44859;51.934;15.554;2023-08-01T05:26:34;98207.25;;;15.58;100.00
59073;BME280;44859;51.934;15.554;2023-08-01T05:29:13;98201.07;;;15.59;100.00
59073;BME280;44859;51.934;15.554;2023-08-01T05:32:33;98195.80;;;15.59;100.00
59073;BME280;44859;51.934;15.554;2023-08-01T05:41:57;98190.48;;;15.61;100.00
59073;BME280;44859;51.934;15.554;2023-08-01T05:45:13;98190.41;;;15.60;100.00
59073;BME280;44859;51.934;15.554;2023-08-01T05:47:44;98188.70;;;15.60;100.00
59073;BME280;44859;51.934;15.554;2023-08-01T05:54:24;98185.50;;;15.63;100.00
59073;BME280;44859;51.934;15.554;2023-08-01T05:57:07;98178.39;;;15.66;100.00
59073;BME280;44859;51.934;15.554;2023-08-01T06:00:23;98175.48;;;15.68;100.00
59073;BME280;44859;51.934;15.554;2023-08-01T06:04:11;98171.29;;;15.73;100.00
59073;BME280;44859;51.934;15.554;2023-08-01T06:07:49;98166.55;;;15.78;100.00
59073;BME280;44859;51.934;15.554;2023-08-01T06:11:59;98164.04;;;15.81;100.00
59073;BME280;44859;51.934;15.554;2023-08-01T06:18:56;98142.83;;;15.86;100.00
59073;BME280;44859;51.934;15.554;2023-08-01T06:43:59;98140.57;;;16.13;100.00
59073;BME280;44859;51.934;15.554;2023-08-01T07:01:43;98118.61;;;16.23;100.00
59073;BME280;44859;51.934;15.554;2023-08-01T07:41:50;98076.92;;;16.37;100.00
59073;BME280;44859;51.934;15.554;2023-08-01T07:44:52;98076.90;;;16.39;100.00
59073;BME280;44859;51.934;15.554;2023-08-01T07:52:56;98061.37;;;16.40;100.00
59073;BME280;44859;51.934;15.554;2023-08-01T08:05:48;98053.87;;;16.32;100.00
59073;BME280;44859;51.934;15.554;2023-08-01T08:09:39;98050.13;;;16.24;100.00
59073;BME280;44859;51.934;15.554;2023-08-01T08:13:01;98052.64;;;16.20;100.00
59073;BME280;44859;51.934;15.554;2023-08-01T08:16:19;98055.37;;;16.15;100.00
59073;BME280;44859;51.934;15.554;2023-08-01T08:19:54;98043.46;;;16.10;100.00
59073;BME280;44859;51.934;15.554;2023-08-01T08:34:55;98036.45;;;15.97;100.00
59073;BME280;44859;51.934;15.554;2023-08-01T08:45:55;98027.66;;;16.04;100.00
59073;BME280;44859;51.934;15.554;2023-08-01T08:49:08;98024.96;;;16.09;100.00
59073;BME280;44859;51.934;15.554;2023-08-01T08:51:39;98025.30;;;16.18;100.00
59073;BME280;44859;51.934;15.554;2023-08-01T08:54:34;98028.02;;;16.25;100.00
59073;BME280;44859;51.934;15.554;2023-08-01T09:04:15;98015.73;;;16.43;100.00
59073;BME280;44859;51.934;15.554;2023-08-01T09:07:31;98012.48;;;16.49;100.00
59073;BME280;44859;51.934;15.554;2023-08-01T09:10:35;98006.85;;;16.58;100.00
59073;BME280;44859;51.934;15.554;2023-08-01T09:14:19;98007.06;;;16.55;100.00
59073;BME280;44859;51.934;15.554;2023-08-01T09:17:51;98001.30;;;16.54;100.00
59073;BME280;44859;51.934;15.554;2023-08-01T09:21:36;98001.18;;;16.54;100.00
59073;BME280;44859;51.934;15.554;2023-08-01T09:25:30;98002.71;;;16.49;100.00
59073;BME280;44859;51.934;15.554;2023-08-01T09:33:03;97992.76;;;16.51;100.00
59073;BME280;44859;51.934;15.554;2023-08-01T09:36:05;97986.95;;;16.52;100.00
59073;BME280;44859;51.934;15.554;2023-08-01T09:39:37;97983.55;;;16.55;100.00
59073;BME280;44859;51.934;15.554;2023-08-01T09:43:58;97984.67;;;16.65;100.00
59073;BME280;44859;51.934;15.554;2023-08-01T09:50:41;97974.70;;;16.59;100.00
59073;BME280;44859;51.934;15.554;2023-08-01T09:54:04;97970.41;;;16.53;100.00
59073;BME280;44859;51.934;15.554;2023-08-01T09:56:58;97965.58;;;16.56;100.00
59073;BME280;44859;51.934;15.554;2023-08-01T10:08:19;97956.65;;;16.65;100.00
59073;BME280;44859;51.934;15.554;2023-08-01T10:16:07;97973.55;;;16.69;100.00
59073;BME280;44859;51.934;15.554;2023-08-01T10:19:53;97964.65;;;16.68;100.00
59073;BME280;44859;51.934;15.554;2023-08-01T10:23:31;97957.60;;;16.73;100.00
59073;BME280;44859;51.934;15.554;2023-08-01T10:35:19;97977.30;;;16.67;100.00
59073;BME280;44859;51.934;15.554;2023-08-01T10:37:52;97974.84;;;16.67;100.00
59073;BME280;44859;51.934;15.554;2023-08-01T10:44:47;97980.20;;;16.86;100.00
59073;BME280;44859;51.934;15.554;2023-08-01T10:53:01;97969.85;;;17.71;100.00
59073;BME280;44859;51.934;15.554;2023-08-01T11:00:37;97964.86;;;18.59;100.00
59073;BME280;44859;51.934;15.554;2023-08-01T11:08:54;97954.14;;;19.32;100.00
59073;BME280;44859;51.934;15.554;2023-08-01T11:16:12;97889.61;;;18.96;100.00
59073;BME280;44859;51.934;15.554;2023-08-01T11:29:18;97947.01;;;19.46;99.90
59073;BME280;44859;51.934;15.554;2023-08-01T11:45:35;97951.80;;;20.13;95.96
59073;BME280;44859;51.934;15.554;2023-08-01T11:49:35;97962.78;;;19.91;95.74
59073;BME280;44859;51.934;15.554;2023-08-01T11:57:17;97946.67;;;19.49;96.02
59073;BME280;44859;51.934;15.554;2023-08-01T12:17:05;97936.25;;;20.43;90.31
59073;BME280;44859;51.934;15.554;2023-08-01T12:21:11;97946.27;;;20.16;89.24
59073;BME280;44859;51.934;15.554;2023-08-01T12:24:33;97950.26;;;19.87;89.81
59073;BME280;44859;51.934;15.554;2023-08-01T12:27:25;97952.59;;;19.64;91.50
59073;BME280;44859;51.934;15.554;2023-08-01T12:38:54;97974.77;;;17.85;95.91
59073;BME280;44859;51.934;15.554;2023-08-01T12:45:52;97983.55;;;18.42;100.00
59073;BME280;44859;51.934;15.554;2023-08-01T13:01:21;97968.52;;;19.78;99.49
59073;BME280;44859;51.934;15.554;2023-08-01T13:05:30;97965.19;;;19.68;97.92
59073;BME280;44859;51.934;15.554;2023-08-01T13:46:47;97958.30;;;19.64;95.34
59073;BME280;44859;51.934;15.554;2023-08-01T14:04:46;97962.92;;;20.01;91.96
59073;BME280;44859;51.934;15.554;2023-08-01T14:22:35;97995.52;;;19.82;86.07
59073;BME280;44859;51.934;15.554;2023-08-01T14:25:23;98001.48;;;19.82;86.46
59073;BME280;44859;51.934;15.554;2023-08-01T14:47:18;98023.70;;;19.07;79.81
59073;BME280;44859;51.934;15.554;2023-08-01T14:50:52;98025.59;;;18.96;79.30
59073;BME280;44859;51.934;15.554;2023-08-01T14:57:34;98023.91;;;19.00;78.27
59073;BME280;44859;51.934;15.554;2023-08-01T15:00:05;98019.45;;;19.16;79.30
59073;BME280;44859;51.934;15.554;2023-08-01T15:05:54;98011.14;;;19.48;78.92
59073;BME280;44859;51.934;15.554;2023-08-01T15:08:24;98012.41;;;19.60;78.65
59073;BME280;44859;51.934;15.554;2023-08-01T15:14:33;98032.64;;;19.60;77.30
59073;BME280;44859;51.934;15.554;2023-08-01T15:17:20;98035.10;;;19.56;77.84
59073;BME280;44859;51.934;15.554;2023-08-01T15:23:07;98028.04;;;19.54;78.24
59073;BME280;44859;51.934;15.554;2023-08-01T15:26:13;98018.36;;;19.51;78.39
59073;BME280;44859;51.934;15.554;2023-08-01T15:28:43;98030.88;;;19.52;78.82
59073;BME280;44859;51.934;15.554;2023-08-01T15:31:10;98044.35;;;19.54;78.63
59073;BME280;44859;51.934;15.554;2023-08-01T15:34:26;98053.59;;;19.69;79.05
59073;BME280;44859;51.934;15.554;2023-08-01T15:37:10;98061.66;;;19.71;78.44
59073;BME280;44859;51.934;15.554;2023-08-01T15:40:01;98065.70;;;19.70;78.49
59073;BME280;44859;51.934;15.554;2023-08-01T15:42:28;98070.45;;;19.69;78.88
59073;BME280;44859;51.934;15.554;2023-08-01T15:44:56;98073.77;;;19.71;79.03
59073;BME280;44859;51.934;15.554;2023-08-01T15:47:25;98068.34;;;19.70;79.15
59073;BME280;44859;51.934;15.554;2023-08-01T15:49:53;98072.84;;;19.70;79.47
59073;BME280;44859;51.934;15.554;2023-08-01T15:52:31;98076.88;;;19.66;78.99
59073;BME280;44859;51.934;15.554;2023-08-01T15:55:09;98076.56;;;19.61;78.81
59073;BME280;44859;51.934;15.554;2023-08-01T15:57:36;98074.00;;;19.66;78.98
59073;BME280;44859;51.934;15.554;2023-08-01T16:00:15;98072.78;;;19.70;78.90
59073;BME280;44859;51.934;15.554;2023-08-01T16:02:42;98076.13;;;19.76;78.90
59073;BME280;44859;51.934;15.554;2023-08-01T16:05:10;98075.30;;;19.80;78.72
59073;BME280;44859;51.934;15.554;2023-08-01T16:08:25;98076.22;;;19.83;78.60
59073;BME280;44859;51.934;15.554;2023-08-01T16:11:06;98073.21;;;19.87;78.02
59073;BME280;44859;51.934;15.554;2023-08-01T16:13:34;98074.30;;;19.92;77.38
59073;BME280;44859;51.934;15.554;2023-08-01T16:16:13;98083.00;;;19.92;76.16
59073;BME280;44859;51.934;15.554;2023-08-01T16:18:46;98084.59;;;20.00;76.45
59073;BME280;44859;51.934;15.554;2023-08-01T16:21:16;98088.09;;;20.13;75.97
59073;BME280;44859;51.934;15.554;2023-08-01T16:23:43;98092.54;;;20.19;74.88
59073;BME280;44859;51.934;15.554;2023-08-01T16:30:02;98088.23;;;20.04;73.76
59073;BME280;44859;51.934;15.554;2023-08-01T16:32:39;98088.27;;;20.07;73.09
59073;BME280;44859;51.934;15.554;2023-08-01T16:35:09;98095.73;;;20.07;72.84
59073;BME280;44859;51.934;15.554;2023-08-01T16:37:40;98099.26;;;20.08;72.94
59073;BME280;44859;51.934;15.554;2023-08-01T16:40:10;98099.55;;;20.04;72.45
59073;BME280;44859;51.934;15.554;2023-08-01T16:42:51;98099.25;;;19.95;72.25
59073;BME280;44859;51.934;15.554;2023-08-01T16:45:35;98098.47;;;19.88;71.91
59073;BME280;44859;51.934;15.554;2023-08-01T16:48:15;98098.16;;;19.86;72.27
59073;BME280;44859;51.934;15.554;2023-08-01T16:51:20;98102.86;;;19.88;72.52
59073;BME280;44859;51.934;15.554;2023-08-01T16:53:59;98107.53;;;19.83;72.58
59073;BME280;44859;51.934;15.554;2023-08-01T16:56:29;98109.85;;;19.82;72.70
59073;BME280;44859;51.934;15.554;2023-08-01T16:58:57;98115.91;;;19.80;72.36
59073;BME280;44859;51.934;15.554;2023-08-01T17:01:45;98126.91;;;19.78;72.44
59073;BME280;44859;51.934;15.554;2023-08-01T17:04:15;98127.77;;;19.74;71.83
59073;BME280;44859;51.934;15.554;2023-08-01T17:06:43;98119.45;;;19.69;72.15
59073;BME280;44859;51.934;15.554;2023-08-01T17:09:21;98104.23;;;19.68;72.64
59073;BME280;44859;51.934;15.554;2023-08-01T17:11:52;98109.02;;;19.67;72.54
59073;BME280;44859;51.934;15.554;2023-08-01T17:14:22;98110.70;;;19.63;72.83
59073;BME280;44859;51.934;15.554;2023-08-01T17:17:02;98113.65;;;19.58;72.81
59073;BME280;44859;51.934;15.554;2023-08-01T17:19:49;98121.40;;;19.52;72.87
59073;BME280;44859;51.934;15.554;2023-08-01T17:22:17;98126.37;;;19.42;72.46
59073;BME280;44859;51.934;15.554;2023-08-01T17:24:45;98127.20;;;19.34;72.66
59073;BME280;44859;51.934;15.554;2023-08-01T17:27:15;98129.86;;;19.27;72.68
59073;BME280;44859;51.934;15.554;2023-08-01T17:29:46;98137.54;;;19.21;72.84
59073;BME280;44859;51.934;15.554;2023-08-01T17:35:35;98154.02;;;19.11;72.99
59073;BME280;44859;51.934;15.554;2023-08-01T17:38:02;98151.34;;;19.06;72.88
59073;BME280;44859;51.934;15.554;2023-08-01T17:40:29;98148.58;;;19.02;73.02
59073;BME280;44859;51.934;15.554;2023-08-01T17:43:05;98154.63;;;18.95;72.99
59073;BME280;44859;51.934;15.554;2023-08-01T17:45:44;98153.64;;;18.92;73.14
59073;BME280;44859;51.934;15.554;2023-08-01T17:48:21;98157.38;;;18.90;73.07
59073;BME280;44859;51.934;15.554;2023-08-01T17:50:52;98161.30;;;18.85;73.06
59073;BME280;44859;51.934;15.554;2023-08-01T17:53:49;98165.21;;;18.80;73.03
59073;BME280;44859;51.934;15.554;2023-08-01T17:56:49;98163.61;;;18.73;72.91
59073;BME280;44859;51.934;15.554;2023-08-01T17:59:57;98170.91;;;18.65;73.20
59073;BME280;44859;51.934;15.554;2023-08-01T18:02:57;98167.21;;;18.56;73.28
59073;BME280;44859;51.934;15.554;2023-08-01T18:06:09;98174.13;;;18.51;73.36
59073;BME280;44859;51.934;15.554;2023-08-01T18:08:40;98177.19;;;18.49;73.46
59073;BME280;44859;51.934;15.554;2023-08-01T18:11:28;98180.13;;;18.43;73.55
59073;BME280;44859;51.934;15.554;2023-08-01T18:14:17;98186.91;;;18.40;73.80
59073;BME280;44859;51.934;15.554;2023-08-01T18:16:48;98190.86;;;18.38;74.05
59073;BME280;44859;51.934;15.554;2023-08-01T18:19:18;98191.17;;;18.35;74.09
59073;BME280;44859;51.934;15.554;2023-08-01T18:22:05;98190.83;;;18.28;74.29
59073;BME280;44859;51.934;15.554;2023-08-01T18:24:55;98190.63;;;18.20;74.50
59073;BME280;44859;51.934;15.554;2023-08-01T18:27:29;98192.11;;;18.14;74.32
59073;BME280;44859;51.934;15.554;2023-08-01T18:29:59;98194.48;;;18.08;74.72
59073;BME280;44859;51.934;15.554;2023-08-01T18:32:37;98195.20;;;18.02;74.98
59073;BME280;44859;51.934;15.554;2023-08-01T18:35:07;98193.98;;;17.93;75.53
59073;BME280;44859;51.934;15.554;2023-08-01T18:37:42;98196.89;;;17.83;76.01
59073;BME280;44859;51.934;15.554;2023-08-01T18:40:30;98201.39;;;17.74;76.37
59073;BME280;44859;51.934;15.554;2023-08-01T18:43:21;98207.17;;;17.66;76.77
59073;BME280;44859;51.934;15.554;2023-08-01T18:46:12;98216.88;;;17.58;77.14
59073;BME280;44859;51.934;15.554;2023-08-01T18:49:12;98223.66;;;17.51;77.51
59073;BME280;44859;51.934;15.554;2023-08-01T18:51:40;98228.44;;;17.44;77.88
59073;BME280;44859;51.934;15.554;2023-08-01T18:54:19;98236.73;;;17.41;78.09
59073;BME280;44859;51.934;15.554;2023-08-01T18:56:47;98248.73;;;17.40;78.30
59073;BME280;44859;51.934;15.554;2023-08-01T18:59:53;98258.31;;;17.38;78.49
59073;BME280;44859;51.934;15.554;2023-08-01T19:02:21;98267.96;;;17.37;78.88
59073;BME280;44859;51.934;15.554;2023-08-01T19:04:55;98269.41;;;17.35;79.08
59073;BME280;44859;51.934;15.554;2023-08-01T19:07:23;98273.90;;;17.31;78.99
59073;BME280;44859;51.934;15.554;2023-08-01T19:09:55;98274.31;;;17.28;79.55
59073;BME280;44859;51.934;15.554;2023-08-01T19:12:22;98275.38;;;17.23;79.60
59073;BME280;44859;51.934;15.554;2023-08-01T19:15:01;98278.97;;;17.20;80.11
59073;BME280;44859;51.934;15.554;2023-08-01T19:21:00;98283.52;;;17.16;80.11
59073;BME280;44859;51.934;15.554;2023-08-01T19:23:31;98282.06;;;17.19;80.33
59073;BME280;44859;51.934;15.554;2023-08-01T19:26:12;98284.12;;;17.19;80.17
59073;BME280;44859;51.934;15.554;2023-08-01T19:28:51;98281.63;;;17.20;80.26
59073;BME280;44859;51.934;15.554;2023-08-01T19:31:47;98279.34;;;17.16;80.40
59073;BME280;44859;51.934;15.554;2023-08-01T19:34:18;98277.85;;;17.13;80.62
59073;BME280;44859;51.934;15.554;2023-08-01T19:36:48;98281.55;;;17.10;80.65
59073;BME280;44859;51.934;15.554;2023-08-01T19:39:17;98285.71;;;17.07;80.61
59073;BME280;44859;51.934;15.554;2023-08-01T19:41:47;98288.35;;;17.04;80.87
59073;BME280;44859;51.934;15.554;2023-08-01T19:44:15;98283.27;;;16.98;81.00
59073;BME280;44859;51.934;15.554;2023-08-01T19:46:59;98286.89;;;16.92;81.31
59073;BME280;44859;51.934;15.554;2023-08-01T19:49:30;98293.30;;;16.84;81.68
59073;BME280;44859;51.934;15.554;2023-08-01T19:55:13;98312.89;;;16.67;82.34
59073;BME280;44859;51.934;15.554;2023-08-01T19:57:43;98317.15;;;16.59;82.40
59073;BME280;44859;51.934;15.554;2023-08-01T20:03:34;98335.58;;;16.49;82.82
59073;BME280;44859;51.934;15.554;2023-08-01T20:06:12;98332.77;;;16.46;82.87
59073;BME280;44859;51.934;15.554;2023-08-01T20:08:40;98329.50;;;16.41;82.82
59073;BME280;44859;51.934;15.554;2023-08-01T20:11:10;98325.40;;;16.38;83.02
59073;BME280;44859;51.934;15.554;2023-08-01T20:14:14;98325.11;;;16.30;83.46
59073;BME280;44859;51.934;15.554;2023-08-01T20:16:48;98327.50;;;16.24;83.38
59073;BME280;44859;51.934;15.554;2023-08-01T20:19:25;98330.38;;;16.19;83.14
59073;BME280;44859;51.934;15.554;2023-08-01T20:22:44;98334.43;;;16.14;83.30
59073;BME280;44859;51.934;15.554;2023-08-01T20:25:21;98339.13;;;16.07;83.38
59073;BME280;44859;51.934;15.554;2023-08-01T20:28:08;98344.23;;;16.02;83.45
59073;BME280;44859;51.934;15.554;2023-08-01T20:31:24;98347.88;;;15.99;83.49
59073;BME280;44859;51.934;15.554;2023-08-01T20:34:01;98353.61;;;15.96;83.44
59073;BME280;44859;51.934;15.554;2023-08-01T20:37:09;98353.39;;;15.91;83.40
59073;BME280;44859;51.934;15.554;2023-08-01T20:39:43;98354.86;;;15.86;83.46
59073;BME280;44859;51.934;15.554;2023-08-01T20:42:17;98356.88;;;15.84;83.10
59073;BME280;44859;51.934;15.554;2023-08-01T20:44:50;98362.73;;;15.84;82.95
59073;BME280;44859;51.934;15.554;2023-08-01T20:47:29;98368.92;;;15.86;82.65
59073;BME280;44859;51.934;15.554;2023-08-01T20:50:55;98370.77;;;15.89;81.96
59073;BME280;44859;51.934;15.554;2023-08-01T20:53:45;98374.05;;;15.90;81.84
59073;BME280;44859;51.934;15.554;2023-08-01T20:56:50;98376.52;;;15.88;81.71
59073;BME280;44859;51.934;15.554;2023-08-01T21:00:27;98376.92;;;15.89;81.20
59073;BME280;44859;51.934;15.554;2023-08-01T23:41:12;98459.07;;;14.13;85.91
